Terminal Aerodrome Forecast
Issued by NWS Wilmington, OH

Current Version | Previous Version | Graphics & Text | Print | Product List | Glossary On
Versions: 1 2 3 4 5 6 7 8 9 10 11 12 13 14 15 16 17 18 19 20 21 22 23 24 25
000
FTUS41 KILN 180500
TAFILN
TAF
KILN 180540Z 1806/1906 28013G18KT P6SM OVC025
      TEMPO 1806/1808 SCT025 OVC060
     FM180800 29012KT P6SM OVC015
      TEMPO 1808/1810 SCT015 OVC025
     FM181500 31012G22KT P6SM VCSH OVC022
     FM182300 32010G18KT P6SM OVC020
      TEMPO 1823/1903 33010KT OVC015
     FM190300 31008KT P6SM OVC014=

USA.gov is the U.S. government's official web portal to all federal, state and local government web resources and services.